Time;durP1;ratioP1;P1;durP2;ratioP2;P2;SDS_P1;SDS_P2;PMS_P1;PMS_P2;Temp;Humidity;BMP_temperature;BMP_pressure;BME280_temperature;BME280_humidity;BME280_pressure;Samples;Min_cycle;Max_cycle;Signal;HPM_P1;HPM_P2
2022/04/28 00:00:40;;;;;;;9.68;4.70;;;7.70;99.90;;;;;;5044994;28;20105;-92
2022/04/28 00:03:09;;;;;;;12.85;4.88;;;7.60;1.00;;;;;;5056204;28;20037;-93
2022/04/28 00:05:38;;;;;;;12.23;4.75;;;7.60;1.00;;;;;;5049497;28;20534;-92
2022/04/28 00:08:08;;;;;;;13.60;4.07;;;7.60;99.90;;;;;;5082455;28;20048;-92
2022/04/28 00:10:35;;;;;;;10.05;4.20;;;7.70;99.90;;;;;;5044115;28;20147;-92
2022/04/28 00:13:01;;;;;;;11.73;4.28;;;7.70;99.90;;;;;;5070513;28;20441;-93
2022/04/28 00:15:34;;;;;;;11.98;4.18;;;7.70;99.90;;;;;;5039723;28;20041;-92
2022/04/28 00:18:00;;;;;;;9.15;4.60;;;7.70;99.90;;;;;;5053140;28;20056;-92
2022/04/28 00:20:26;;;;;;;9.02;4.10;;;7.70;99.90;;;;;;5042588;28;20093;-92
2022/04/28 00:22:52;;;;;;;9.30;4.07;;;7.70;99.90;;;;;;5042861;28;20044;-92
2022/04/28 00:25:18;;;;;;;11.57;4.35;;;7.70;99.90;;;;;;5043322;28;20040;-92
2022/04/28 00:27:43;;;;;;;9.80;4.50;;;7.70;99.90;;;;;;5041666;28;20045;-93
2022/04/28 00:30:09;;;;;;;7.60;4.45;;;7.70;99.90;;;;;;5043576;28;20498;-92
2022/04/28 00:32:35;;;;;;;10.77;4.70;;;7.70;99.90;;;;;;5042040;28;20040;-91
2022/04/28 00:35:01;;;;;;;9.23;4.15;;;7.60;1.00;;;;;;5060854;28;20032;-93
2022/04/28 00:37:27;;;;;;;10.15;4.38;;;7.70;99.90;;;;;;5056395;28;20082;-92
2022/04/28 00:39:53;;;;;;;12.68;5.18;;;7.70;99.90;;;;;;5061215;28;20101;-92
2022/04/28 00:42:21;;;;;;;10.00;4.82;;;7.70;99.90;;;;;;5041379;28;20052;-93
2022/04/28 00:44:47;;;;;;;11.43;4.32;;;7.60;99.90;;;;;;5040998;28;20040;-92
2022/04/28 00:47:13;;;;;;;6.65;3.47;;;7.60;99.90;;;;;;5052058;28;20063;-94
2022/04/28 00:52:29;;;;;;;7.68;3.88;;;7.60;99.90;;;;;;5055864;28;20047;-92
2022/04/28 00:54:55;;;;;;;10.50;4.30;;;7.60;99.90;;;;;;5039661;28;20032;-93
2022/04/28 00:57:22;;;;;;;9.43;3.85;;;7.60;99.90;;;;;;5041268;28;20052;-93
2022/04/28 00:59:52;;;;;;;10.52;4.15;;;7.70;99.90;;;;;;5055729;28;20049;-92
2022/04/28 01:02:19;;;;;;;11.30;4.13;;;7.60;99.90;;;;;;5059195;28;20044;-92
2022/04/28 01:04:46;;;;;;;9.82;4.03;;;7.70;99.90;;;;;;5040293;28;20136;-93
2022/04/28 01:07:29;;;;;;;9.65;4.10;;;7.60;99.90;;;;;;5038601;28;20556;-94
2022/04/28 01:09:55;;;;;;;9.52;4.07;;;7.60;99.90;;;;;;5056915;28;20036;-94
2022/04/28 01:12:24;;;;;;;8.10;3.40;;;7.60;99.90;;;;;;5040174;28;20086;-93
2022/04/28 01:14:50;;;;;;;14.68;4.35;;;7.60;99.90;;;;;;5045481;28;20043;-94
2022/04/28 01:17:16;;;;;;;10.48;3.35;;;7.60;99.90;;;;;;5043561;28;20056;-93
2022/04/28 01:19:42;;;;;;;9.07;4.75;;;7.70;99.90;;;;;;5056023;28;20045;-92
2022/04/28 01:22:08;;;;;;;10.75;4.20;;;7.70;99.90;;;;;;5042596;28;20079;-93
2022/04/28 01:24:36;;;;;;;9.95;3.78;;;7.70;99.90;;;;;;5047851;28;20056;-93
2022/04/28 01:27:06;;;;;;;8.55;3.90;;;7.70;99.90;;;;;;5043070;28;20179;-94
2022/04/28 01:29:33;;;;;;;11.80;4.25;;;7.70;99.90;;;;;;5048793;28;20172;-91
2022/04/28 01:32:02;;;;;;;8.75;4.50;;;7.70;99.90;;;;;;5044727;28;20114;-92
2022/04/28 01:34:27;;;;;;;9.40;3.47;;;7.70;99.90;;;;;;5063087;28;20543;-93
2022/04/28 01:36:54;;;;;;;12.43;4.10;;;7.70;99.90;;;;;;5057782;28;20044;-92
2022/04/28 01:39:20;;;;;;;10.27;3.95;;;7.70;99.90;;;;;;5047796;28;20036;-92
2022/04/28 01:41:48;;;;;;;7.80;3.42;;;7.70;99.90;;;;;;5059448;28;20059;-92
2022/04/28 01:44:14;;;;;;;10.38;3.92;;;7.80;99.90;;;;;;5041230;28;20052;-91
2022/04/28 01:46:39;;;;;;;13.23;4.07;;;7.80;99.90;;;;;;5053507;28;20036;-92
2022/04/28 01:49:05;;;;;;;6.75;3.50;;;7.80;99.90;;;;;;5045448;28;20045;-92
2022/04/28 01:56:59;;;;;;;8.30;4.05;;;7.80;99.90;;;;;;5062744;28;20147;-92
2022/04/28 01:59:25;;;;;;;10.25;4.05;;;7.80;99.90;;;;;;5059691;28;20527;-92
2022/04/28 02:01:51;;;;;;;7.78;3.85;;;7.80;99.90;;;;;;5047333;28;20074;-92
2022/04/28 02:04:17;;;;;;;8.95;4.68;;;7.70;99.90;;;;;;5038272;28;20086;-92
2022/04/28 02:06:42;;;;;;;7.50;4.15;;;7.70;99.90;;;;;;5048925;28;20037;-93
2022/04/28 02:09:11;;;;;;;10.63;4.38;;;7.70;99.90;;;;;;5047551;28;20036;-92
2022/04/28 02:11:37;;;;;;;12.07;4.68;;;7.70;99.90;;;;;;5059055;28;20319;-92
2022/04/28 02:14:03;;;;;;;9.98;4.57;;;7.60;1.00;;;;;;5044999;28;20029;-92
2022/04/28 02:16:28;;;;;;;10.07;4.68;;;7.70;99.90;;;;;;5063991;28;20052;-93
2022/04/28 02:18:54;;;;;;;10.18;4.57;;;7.70;99.90;;;;;;5043535;28;20072;-93
2022/04/28 02:21:20;;;;;;;9.57;4.45;;;7.60;99.90;;;;;;5062005;28;20049;-93
2022/04/28 02:23:45;;;;;;;13.35;4.18;;;7.70;99.90;;;;;;5060961;28;20074;-93
2022/04/28 02:26:11;;;;;;;10.65;4.30;;;7.60;99.90;;;;;;5062501;28;20406;-92
2022/04/28 02:28:37;;;;;;;10.35;4.10;;;7.60;99.90;;;;;;5041905;28;20033;-92
2022/04/28 02:31:03;;;;;;;10.60;4.85;;;7.70;99.90;;;;;;5046611;28;21625;-93
2022/04/28 02:33:29;;;;;;;14.23;4.47;;;7.60;99.90;;;;;;5044073;28;20040;-92
2022/04/28 02:35:54;;;;;;;9.77;4.25;;;7.60;1.00;;;;;;5047463;28;20036;-92
2022/04/28 02:38:20;;;;;;;14.38;4.18;;;7.60;1.00;;;;;;5044338;28;20051;-92
2022/04/28 02:40:46;;;;;;;9.85;4.18;;;7.60;1.00;;;;;;5043518;28;20045;-93
2022/04/28 02:43:11;;;;;;;8.18;4.00;;;7.60;99.90;;;;;;5046357;28;20057;-93
2022/04/28 02:45:37;;;;;;;10.93;4.43;;;7.60;1.00;;;;;;5062403;28;20080;-92
2022/04/28 02:48:03;;;;;;;9.82;3.67;;;7.60;1.00;;;;;;5046273;28;20068;-92
2022/04/28 02:50:31;;;;;;;13.57;4.60;;;7.50;1.00;;;;;;5046131;28;20036;-92
2022/04/28 02:52:58;;;;;;;11.70;3.95;;;7.50;1.00;;;;;;5041915;28;20497;-93
2022/04/28 02:55:23;;;;;;;8.55;4.30;;;7.50;99.90;;;;;;5043800;28;20036;-92
2022/04/28 02:57:49;;;;;;;8.05;3.53;;;7.50;99.90;;;;;;5040894;28;20150;-92
2022/04/28 03:00:15;;;;;;;9.13;4.00;;;7.50;99.90;;;;;;5052923;28;20099;-91
2022/04/28 03:02:44;;;;;;;8.23;3.90;;;7.50;99.90;;;;;;5058332;28;20040;-93
2022/04/28 03:05:12;;;;;;;7.25;3.63;;;7.60;1.00;;;;;;5043890;28;20494;-90
2022/04/28 03:10:53;;;;;;;8.43;3.55;;;7.50;99.90;;;;;;5055826;28;20059;-93
2022/04/28 03:13:21;;;;;;;8.68;3.90;;;7.50;99.90;;;;;;5059872;28;20170;-92
2022/04/28 03:15:48;;;;;;;9.23;4.28;;;7.50;1.00;;;;;;5052887;28;20083;-93
2022/04/28 03:18:15;;;;;;;8.75;4.38;;;7.50;1.00;;;;;;5046388;28;20055;-92
2022/04/28 03:20:41;;;;;;;9.43;4.10;;;7.50;99.90;;;;;;5061878;28;20421;-92
2022/04/28 03:23:08;;;;;;;9.35;5.05;;;7.60;99.90;;;;;;5044957;28;20043;-93
2022/04/28 03:25:34;;;;;;;10.15;4.28;;;7.60;99.90;;;;;;5046116;28;20037;-92
2022/04/28 03:28:00;;;;;;;8.85;4.32;;;7.60;99.90;;;;;;5058072;28;20045;-92
2022/04/28 03:30:29;;;;;;;8.40;4.07;;;7.60;99.90;;;;;;5044412;28;20075;-92
2022/04/28 03:32:55;;;;;;;7.82;4.40;;;7.60;99.90;;;;;;5045624;28;20090;-92
2022/04/28 03:35:20;;;;;;;14.82;4.75;;;7.60;99.90;;;;;;5041177;28;20576;-93
2022/04/28 03:37:47;;;;;;;8.60;4.30;;;7.60;1.00;;;;;;5062181;28;20085;-92
2022/04/28 03:40:14;;;;;;;14.23;4.38;;;7.60;1.00;;;;;;5040503;28;20323;-91
2022/04/28 03:42:40;;;;;;;9.55;4.35;;;7.60;1.00;;;;;;5052525;28;20169;-93
2022/04/28 03:45:06;;;;;;;7.57;4.40;;;7.60;1.00;;;;;;5043680;28;20181;-92
2022/04/28 03:47:36;;;;;;;12.48;4.40;;;7.60;99.90;;;;;;5057093;28;20222;-92
2022/04/28 03:50:04;;;;;;;10.15;4.40;;;7.60;99.90;;;;;;5061701;28;20057;-92
2022/04/28 03:52:30;;;;;;;10.43;4.47;;;7.60;1.00;;;;;;5056148;28;20040;-92
2022/04/28 03:54:55;;;;;;;9.55;4.10;;;7.60;1.00;;;;;;5044222;28;20159;-92
2022/04/28 03:57:21;;;;;;;11.63;4.43;;;7.60;99.90;;;;;;5060241;28;20053;-92
2022/04/28 03:59:47;;;;;;;10.85;4.78;;;7.60;1.00;;;;;;5041753;28;20604;-92
2022/04/28 04:02:13;;;;;;;10.55;4.40;;;7.60;1.00;;;;;;5041133;28;20036;-92
2022/04/28 04:04:39;;;;;;;9.27;4.20;;;7.60;1.00;;;;;;5060643;28;20128;-92
2022/04/28 04:07:05;;;;;;;7.68;4.35;;;7.60;1.00;;;;;;5057317;28;20469;-93
2022/04/28 04:09:31;;;;;;;11.90;4.57;;;7.60;1.00;;;;;;5043889;28;20036;-93
2022/04/28 04:11:57;;;;;;;10.80;4.53;;;7.50;1.00;;;;;;5045000;28;20043;-92
2022/04/28 04:14:23;;;;;;;12.40;4.78;;;7.50;1.00;;;;;;5041852;28;20090;-92
2022/04/28 04:16:48;;;;;;;11.25;4.75;;;7.60;99.90;;;;;;5045726;28;20399;-93
2022/04/28 04:19:14;;;;;;;9.02;4.50;;;7.60;1.00;;;;;;5041888;28;20060;-92
2022/04/28 04:21:40;;;;;;;9.85;4.78;;;7.60;1.00;;;;;;5078837;28;20097;-92
2022/04/28 04:24:09;;;;;;;14.73;4.70;;;7.60;1.00;;;;;;5044529;28;20056;-91
2022/04/28 04:26:34;;;;;;;9.45;4.78;;;7.60;1.00;;;;;;5044080;28;20064;-93
2022/04/28 04:29:00;;;;;;;14.10;5.35;;;7.60;1.00;;;;;;5050757;28;20113;-92
2022/04/28 04:34:15;;;;;;;13.77;5.45;;;7.60;1.00;;;;;;5059783;28;20146;-92
2022/04/28 04:36:41;;;;;;;11.23;4.72;;;7.60;1.00;;;;;;5048096;28;20060;-92
2022/04/28 04:39:06;;;;;;;10.55;4.40;;;7.50;1.00;;;;;;5043780;28;20145;-91
2022/04/28 04:41:32;;;;;;;8.77;4.68;;;7.50;1.00;;;;;;5040808;28;20036;-93
2022/04/28 04:43:58;;;;;;;8.25;4.55;;;7.50;1.00;;;;;;5040271;28;20045;-93
2022/04/28 04:46:23;;;;;;;9.45;4.55;;;7.50;1.00;;;;;;5042890;28;20040;-92
2022/04/28 04:48:49;;;;;;;8.85;4.80;;;7.50;1.00;;;;;;5041699;28;20101;-92
2022/04/28 04:51:15;;;;;;;9.18;4.72;;;7.50;1.00;;;;;;5055859;28;20044;-92
2022/04/28 04:53:43;;;;;;;8.98;4.63;;;7.50;1.00;;;;;;5041417;28;20040;-92
2022/04/28 04:56:09;;;;;;;9.43;4.72;;;7.60;1.00;;;;;;5077271;28;20056;-92
2022/04/28 04:58:34;;;;;;;9.60;5.28;;;7.60;1.00;;;;;;5061062;28;20044;-92
2022/04/28 05:01:01;;;;;;;10.10;5.63;;;7.60;1.00;;;;;;5041445;28;20133;-92
2022/04/28 05:03:27;;;;;;;11.65;5.20;;;7.60;1.00;;;;;;5042232;28;20036;-91
2022/04/28 05:05:53;;;;;;;11.80;5.15;;;7.70;1.00;;;;;;5046730;28;20036;-93
2022/04/28 05:08:19;;;;;;;12.23;5.47;;;7.70;1.00;;;;;;5056019;28;20045;-92
2022/04/28 05:10:47;;;;;;;9.88;5.38;;;7.80;1.00;;;;;;5047941;28;20028;-93
2022/04/28 05:13:13;;;;;;;8.98;5.53;;;7.80;1.00;;;;;;5051296;28;20041;-92
2022/04/28 05:15:39;;;;;;;12.63;5.90;;;7.80;1.00;;;;;;5064057;28;20312;-92
2022/04/28 05:18:05;;;;;;;15.25;5.85;;;7.80;1.00;;;;;;5058721;28;20135;-92
2022/04/28 05:20:32;;;;;;;10.63;5.60;;;7.90;1.00;;;;;;5033547;28;20061;-93
2022/04/28 05:22:57;;;;;;;11.15;5.53;;;7.90;1.00;;;;;;5015396;28;20045;-92
2022/04/28 05:25:23;;;;;;;11.50;5.38;;;7.90;1.00;;;;;;5019178;28;20061;-93
2022/04/28 05:27:51;;;;;;;12.23;5.43;;;8.00;1.00;;;;;;5040258;28;20067;-93
2022/04/28 05:30:17;;;;;;;11.50;5.22;;;8.10;1.00;;;;;;5021761;28;20056;-93
2022/04/28 05:32:43;;;;;;;12.52;5.05;;;8.10;1.00;;;;;;5020363;28;20045;-92
2022/04/28 05:35:09;;;;;;;10.32;5.22;;;8.10;1.40;;;;;;5024504;28;20106;-93
2022/04/28 05:37:35;;;;;;;23.77;5.03;;;8.30;1.00;;;;;;5022866;28;20474;-92
2022/04/28 05:40:01;;;;;;;11.20;4.85;;;8.30;1.00;;;;;;5025141;28;20091;-92
2022/04/28 05:45:41;;;;;;;13.50;4.75;;;8.30;37.80;;;;;;5024258;28;20072;-93
2022/04/28 05:47:57;;;;;;;11.15;4.30;;;8.30;22.50;;;;;;5029154;28;20160;-92
2022/04/28 05:50:22;;;;;;;9.50;4.10;;;8.40;69.00;;;;;;5032460;28;20431;-92
2022/04/28 05:52:48;;;;;;;8.80;4.25;;;8.50;54.00;;;;;;5021974;28;20146;-93
2022/04/28 05:55:14;;;;;;;15.52;4.18;;;8.50;75.70;;;;;;5018915;28;20044;-92
2022/04/28 05:57:40;;;;;;;12.48;4.22;;;8.60;1.00;;;;;;5014900;28;20315;-92
2022/04/28 06:00:09;;;;;;;8.77;3.67;;;8.70;1.00;;;;;;5018520;28;20060;-93
2022/04/28 06:02:37;;;;;;;9.50;3.63;;;8.80;1.00;;;;;;5019688;28;20045;-92
2022/04/28 06:05:04;;;;;;;11.32;4.00;;;8.70;18.00;;;;;;5035342;28;20055;-91
2022/04/28 06:07:29;;;;;;;8.90;3.67;;;8.80;1.00;;;;;;5019501;28;20048;-92
2022/04/28 06:09:55;;;;;;;9.32;3.65;;;8.90;1.00;;;;;;5020273;28;20037;-92
2022/04/28 06:12:25;;;;;;;8.52;3.67;;;9.00;1.00;;;;;;5021293;28;20059;-92
2022/04/28 06:14:51;;;;;;;8.70;3.65;;;9.10;1.00;;;;;;5022011;28;20118;-93
2022/04/28 06:17:17;;;;;;;12.40;4.05;;;9.00;1.00;;;;;;5020211;28;20076;-92
2022/04/28 06:19:43;;;;;;;10.40;3.22;;;9.10;1.00;;;;;;5029510;28;20045;-91
2022/04/28 06:22:09;;;;;;;7.80;3.50;;;9.30;1.00;;;;;;5023088;28;20348;-91
2022/04/28 06:24:34;;;;;;;10.75;3.70;;;9.50;1.00;;;;;;5029065;28;20107;-92
2022/04/28 06:27:04;;;;;;;14.48;4.32;;;9.60;1.00;;;;;;5027932;28;20044;-92
2022/04/28 06:29:29;;;;;;;9.20;3.70;;;9.80;1.00;;;;;;5027637;28;20083;-92
2022/04/28 06:31:55;;;;;;;13.80;3.95;;;9.60;1.00;;;;;;5032797;28;20037;-92
2022/04/28 06:34:21;;;;;;;10.18;3.80;;;9.50;3.80;;;;;;5033116;28;20132;-92
2022/04/28 06:36:47;;;;;;;14.73;3.63;;;9.50;1.00;;;;;;5028555;28;20109;-93
2022/04/28 06:39:15;;;;;;;10.57;3.65;;;9.60;1.00;;;;;;5024697;28;20057;-91
2022/04/28 06:41:44;;;;;;;7.07;2.85;;;9.80;1.00;;;;;;5026678;28;20052;-91
2022/04/28 06:44:09;;;;;;;8.48;3.60;;;9.90;1.00;;;;;;5022041;28;20077;-91
2022/04/28 06:46:35;;;;;;;12.80;3.33;;;10.00;99.90;;;;;;5023268;28;20104;-92
2022/04/28 06:49:01;;;;;;;8.90;2.70;;;9.70;1.00;;;;;;5021511;28;20037;-92
2022/04/28 06:51:27;;;;;;;10.15;2.88;;;9.70;1.00;;;;;;5020411;28;20033;-92
2022/04/28 06:53:52;;;;;;;11.75;3.38;;;10.00;1.00;;;;;;5017102;28;20060;-92
2022/04/28 06:56:18;;;;;;;9.07;3.10;;;10.20;1.00;;;;;;5022556;28;20552;-91
2022/04/28 06:58:44;;;;;;;10.57;3.20;;;10.20;1.00;;;;;;5039349;28;20387;-92
2022/04/28 07:01:12;;;;;;;9.75;3.42;;;10.30;1.00;;;;;;5016360;28;20200;-92
2022/04/28 07:03:40;;;;;;;13.07;3.25;;;10.60;1.00;;;;;;5048112;28;20087;-92
2022/04/28 07:06:06;;;;;;;7.75;2.67;;;10.80;99.90;;;;;;5022319;28;20419;-91
2022/04/28 07:08:31;;;;;;;6.55;3.10;;;10.90;99.90;;;;;;5021470;28;20065;-91
2022/04/28 07:10:58;;;;;;;10.82;3.00;;;11.00;99.90;;;;;;5027052;28;20491;-92
2022/04/28 07:13:27;;;;;;;9.85;2.97;;;11.10;99.90;;;;;;5022913;28;20386;-93
2022/04/28 07:15:53;;;;;;;7.95;3.25;;;10.90;99.90;;;;;;5022693;28;20400;-93
2022/04/28 07:18:19;;;;;;;9.75;2.90;;;10.70;99.90;;;;;;5022608;28;20111;-92
2022/04/28 07:20:45;;;;;;;9.43;3.05;;;9.90;99.90;;;;;;5031953;28;20052;-92
2022/04/28 07:23:11;;;;;;;7.53;2.80;;;10.20;1.00;;;;;;5023288;28;20068;-92
2022/04/28 07:25:37;;;;;;;10.57;3.08;;;10.00;1.00;;;;;;5023561;28;20585;-92
2022/04/28 07:28:03;;;;;;;9.52;3.05;;;9.90;1.00;;;;;;5024426;28;20049;-93
2022/04/28 07:30:31;;;;;;;11.68;3.00;;;10.00;1.00;;;;;;5028066;28;20040;-92
2022/04/28 07:32:57;;;;;;;9.23;2.83;;;10.20;99.90;;;;;;5020842;28;20060;-92
2022/04/28 07:35:26;;;;;;;9.88;2.60;;;10.20;99.90;;;;;;5022935;28;20384;-92
2022/04/28 07:37:52;;;;;;;11.32;3.17;;;10.60;99.90;;;;;;5036597;28;20048;-92
2022/04/28 07:40:18;;;;;;;7.40;3.03;;;10.70;99.90;;;;;;5014934;28;20330;-93
2022/04/28 07:42:44;;;;;;;10.73;2.70;;;10.50;99.90;;;;;;5017379;28;20040;-92
2022/04/28 07:45:13;;;;;;;9.75;2.70;;;10.90;99.90;;;;;;5022283;28;20056;-93
2022/04/28 07:47:39;;;;;;;10.13;2.50;;;11.30;99.90;;;;;;5020000;28;20319;-94
2022/04/28 07:50:05;;;;;;;9.25;2.25;;;11.10;99.90;;;;;;5017895;28;20463;-92
2022/04/28 07:52:30;;;;;;;6.55;2.53;;;11.40;99.90;;;;;;5021551;28;20031;-93
2022/04/28 07:54:57;;;;;;;5.47;2.13;;;12.00;99.90;;;;;;5019199;28;20155;-92
2022/04/28 07:57:23;;;;;;;6.72;1.88;;;11.70;99.90;;;;;;5022580;28;20538;-92
2022/04/28 07:59:50;;;;;;;7.00;2.33;;;11.80;99.90;;;;;;5028763;28;20337;-93
2022/04/28 08:02:16;;;;;;;7.72;2.40;;;12.00;99.90;;;;;;5026003;28;20490;-92
2022/04/28 08:04:42;;;;;;;8.63;2.15;;;11.40;99.90;;;;;;5022379;28;20041;-93
2022/04/28 08:07:07;;;;;;;13.45;2.38;;;11.40;99.90;;;;;;5022075;28;20549;-92
2022/04/28 08:09:33;;;;;;;9.68;2.50;;;11.70;99.90;;;;;;5021671;28;20068;-93
2022/04/28 08:11:59;;;;;;;7.97;2.88;;;11.70;99.90;;;;;;5022201;28;20494;-91
2022/04/28 08:14:25;;;;;;;6.38;2.38;;;12.20;99.90;;;;;;5016763;28;20099;-93
2022/04/28 08:16:53;;;;;;;7.00;2.30;;;12.30;99.90;;;;;;5016034;28;20099;-92
2022/04/28 08:19:20;;;;;;;9.95;2.80;;;12.00;99.90;;;;;;5031862;28;20505;-93
2022/04/28 08:21:49;;;;;;;12.65;2.47;;;11.80;99.90;;;;;;5020907;28;20614;-92
2022/04/28 08:24:15;;;;;;;8.35;3.13;;;12.70;99.90;;;;;;5019978;28;20041;-92
2022/04/28 08:26:41;;;;;;;5.90;2.60;;;12.10;99.90;;;;;;5022769;28;20037;-93
2022/04/28 08:29:06;;;;;;;6.82;2.33;;;11.90;99.90;;;;;;5015992;28;20124;-92
2022/04/28 08:31:33;;;;;;;9.73;2.72;;;11.50;99.90;;;;;;5032702;28;20123;-92
2022/04/28 08:33:59;;;;;;;10.65;2.80;;;12.20;99.90;;;;;;5017075;28;20033;-92
2022/04/28 08:36:25;;;;;;;9.35;2.53;;;13.10;99.90;;;;;;5013112;28;20056;-92
2022/04/28 08:38:52;;;;;;;10.70;2.45;;;13.10;99.90;;;;;;5014654;28;20272;-93
2022/04/28 08:41:45;;;;;;;9.43;2.70;;;12.90;99.90;;;;;;5020611;28;20092;-93
2022/04/28 08:44:24;;;;;;;13.90;2.58;;;13.50;99.90;;;;;;5023640;28;20040;-93
2022/04/28 08:46:53;;;;;;;7.70;2.33;;;12.60;99.90;;;;;;5018566;28;20348;-92
2022/04/28 08:49:32;;;;;;;11.65;2.20;;;12.10;99.90;;;;;;5029448;28;20039;-92
2022/04/28 08:51:59;;;;;;;10.77;2.10;;;11.70;99.90;;;;;;5018554;28;20458;-92
2022/04/28 08:54:27;;;;;;;9.32;2.10;;;12.40;99.90;;;;;;5016719;28;20111;-93
2022/04/28 08:56:57;;;;;;;7.30;2.25;;;12.60;99.90;;;;;;5020952;28;20041;-93
2022/04/28 08:59:24;;;;;;;5.60;1.90;;;12.80;99.90;;;;;;5033772;28;20049;-91
2022/04/28 09:01:50;;;;;;;6.80;2.35;;;13.00;99.90;;;;;;5021393;28;20067;-93
2022/04/28 09:04:17;;;;;;;10.70;2.42;;;13.00;99.90;;;;;;5018705;28;20064;-93
2022/04/28 09:06:44;;;;;;;6.68;2.40;;;12.80;99.90;;;;;;5020805;28;20037;-91
2022/04/28 09:09:15;;;;;;;6.80;2.35;;;13.00;99.90;;;;;;5014965;28;20037;-92
2022/04/28 09:11:42;;;;;;;8.27;2.58;;;13.00;99.90;;;;;;5020365;28;20044;-93
2022/04/28 09:14:25;;;;;;;9.27;2.67;;;13.00;99.90;;;;;;5023674;28;20092;-93
2022/04/28 09:16:52;;;;;;;7.07;2.35;;;12.70;99.90;;;;;;5021337;28;20060;-92
2022/04/28 09:19:35;;;;;;;12.30;3.47;;;13.40;99.90;;;;;;5016943;28;20048;-92
2022/04/28 09:22:09;;;;;;;7.93;3.58;;;12.60;99.90;;;;;;5015413;28;20049;-91
2022/04/28 09:24:37;;;;;;;10.52;2.78;;;12.20;99.90;;;;;;5030466;28;20541;-92
2022/04/28 09:27:03;;;;;;;15.60;3.90;;;12.80;99.90;;;;;;5018732;28;20447;-91
2022/04/28 09:29:32;;;;;;;12.45;3.60;;;12.50;99.90;;;;;;5021310;28;20041;-92
2022/04/28 09:31:59;;;;;;;10.50;3.92;;;12.20;99.90;;;;;;5029701;28;20114;-93
2022/04/28 09:34:25;;;;;;;9.50;4.03;;;11.80;99.90;;;;;;5035602;28;20037;-92
2022/04/28 09:36:51;;;;;;;8.68;3.72;;;11.90;99.90;;;;;;5019667;28;20040;-93
2022/04/28 09:44:57;;;;;;;7.82;4.20;;;11.90;99.90;;;;;;5035314;28;20041;-91
2022/04/28 09:47:24;;;;;;;11.50;3.75;;;11.70;99.90;;;;;;5017336;28;20037;-91
2022/04/28 09:49:55;;;;;;;12.38;4.60;;;11.90;99.90;;;;;;5041030;28;20037;-92
2022/04/28 09:52:24;;;;;;;14.90;4.57;;;11.80;99.90;;;;;;5025401;28;20104;-91
2022/04/28 09:54:52;;;;;;;12.75;4.60;;;12.20;99.90;;;;;;5043713;28;20047;-92
2022/04/28 09:57:20;;;;;;;8.95;4.15;;;12.20;99.90;;;;;;5039401;28;20037;-92
2022/04/28 09:59:47;;;;;;;11.38;4.43;;;12.40;99.90;;;;;;5021624;28;20116;-93
2022/04/28 10:02:17;;;;;;;11.70;4.30;;;12.80;99.90;;;;;;5022753;28;20113;-92
2022/04/28 10:04:43;;;;;;;10.80;4.20;;;12.60;99.90;;;;;;5046646;28;20051;-92
2022/04/28 10:07:14;;;;;;;10.55;4.32;;;12.40;99.90;;;;;;5019605;28;20037;-92
2022/04/28 10:09:41;;;;;;;10.05;3.65;;;12.00;99.90;;;;;;5019974;28;20061;-92
2022/04/28 10:12:09;;;;;;;10.07;3.50;;;12.20;99.90;;;;;;5024672;28;20091;-92
2022/04/28 10:14:39;;;;;;;10.95;3.70;;;13.00;99.90;;;;;;5046562;28;20127;-92
2022/04/28 10:17:10;;;;;;;12.02;3.80;;;13.50;99.90;;;;;;5024689;28;20104;-92
2022/04/28 10:19:41;;;;;;;14.55;4.00;;;12.80;99.90;;;;;;5032085;28;20079;-92
2022/04/28 10:22:13;;;;;;;7.55;3.40;;;12.10;99.90;;;;;;5016611;28;20116;-93
2022/04/28 10:33:10;;;;;;;;;;;13.10;99.90;;;;;;5033989;28;20100;-91
2022/04/28 10:35:39;;;;;;;12.00;4.13;;;12.80;99.90;;;;;;5016178;28;20358;-92
2022/04/28 10:38:06;;;;;;;11.88;3.42;;;12.60;99.90;;;;;;5020119;28;20098;-91
2022/04/28 10:40:38;;;;;;;9.15;3.50;;;12.50;99.90;;;;;;5019195;28;20427;-92
2022/04/28 10:43:04;;;;;;;10.48;3.40;;;12.40;99.90;;;;;;5021132;28;20041;-92
2022/04/28 10:45:40;;;;;;;10.93;3.58;;;12.40;99.90;;;;;;5032223;28;20041;-91
2022/04/28 10:51:12;;;;;;;12.00;3.78;;;12.20;99.90;;;;;;5037877;28;20137;-92
2022/04/28 10:54:00;;;;;;;9.43;3.30;;;12.00;99.90;;;;;;5011310;28;20048;-92
2022/04/28 10:56:50;;;;;;;10.73;3.50;;;12.10;99.90;;;;;;5025987;28;20513;-92
2022/04/28 10:59:32;;;;;;;10.45;3.55;;;12.00;99.90;;;;;;5019856;28;20121;-92
2022/04/28 11:02:09;;;;;;;8.82;3.28;;;12.60;99.90;;;;;;5018139;28;20045;-94
2022/04/28 11:04:36;;;;;;;8.98;3.10;;;12.70;99.90;;;;;;5038387;28;20458;-91
2022/04/28 11:07:07;;;;;;;9.40;2.90;;;12.10;99.90;;;;;;5026698;28;20037;-92
2022/04/28 11:09:35;;;;;;;9.75;3.40;;;12.20;99.90;;;;;;5021617;28;20348;-92
2022/04/28 11:12:11;;;;;;;10.70;2.90;;;12.50;99.90;;;;;;5020950;28;20140;-91
2022/04/28 11:14:46;;;;;;;8.05;3.10;;;12.90;99.90;;;;;;5037573;28;20039;-92
2022/04/28 11:17:13;;;;;;;9.45;3.30;;;13.00;99.90;;;;;;5035791;28;20518;-92
2022/04/28 11:19:40;;;;;;;9.77;3.17;;;12.30;99.90;;;;;;5018495;28;20044;-92
2022/04/28 11:22:06;;;;;;;8.00;3.30;;;12.20;99.90;;;;;;5023053;28;20116;-92
2022/04/28 11:24:33;;;;;;;9.05;3.00;;;12.00;99.90;;;;;;5020657;28;20127;-92
2022/04/28 11:26:59;;;;;;;10.15;3.53;;;13.10;99.90;;;;;;5025358;28;20041;-90
2022/04/28 11:29:28;;;;;;;9.63;3.33;;;12.30;99.90;;;;;;5026576;28;20080;-93
2022/04/28 11:31:54;;;;;;;9.93;3.38;;;12.40;99.90;;;;;;5022391;28;20065;-93
2022/04/28 11:34:20;;;;;;;8.15;3.10;;;12.60;99.90;;;;;;5024694;28;20065;-92
2022/04/28 11:36:47;;;;;;;12.30;3.55;;;12.60;99.90;;;;;;5020659;28;20044;-92
2022/04/28 11:39:13;;;;;;;8.82;2.80;;;12.90;99.90;;;;;;5022092;28;20040;-92
2022/04/28 11:41:40;;;;;;;9.00;3.40;;;12.70;99.90;;;;;;5017332;28;20033;-92
2022/04/28 11:44:11;;;;;;;9.05;2.75;;;12.80;99.90;;;;;;5022205;28;20098;-91
2022/04/28 11:46:50;;;;;;;10.90;3.10;;;12.50;99.90;;;;;;5028941;28;20079;-91
2022/04/28 11:49:20;;;;;;;6.72;2.90;;;12.50;99.90;;;;;;5020313;28;20032;-91
2022/04/28 11:51:46;;;;;;;8.30;3.60;;;12.80;99.90;;;;;;5019561;28;20039;-90
2022/04/28 11:54:25;;;;;;;10.13;3.50;;;12.80;99.90;;;;;;5016216;28;20032;-92
2022/04/28 11:56:51;;;;;;;10.10;3.00;;;12.70;99.90;;;;;;5023805;28;20108;-92
2022/04/28 11:59:17;;;;;;;9.80;3.72;;;13.10;99.90;;;;;;5025996;28;20055;-93
2022/04/28 12:01:44;;;;;;;10.90;3.03;;;12.90;99.90;;;;;;5027186;28;20191;-92
2022/04/28 12:04:11;;;;;;;8.65;3.25;;;12.00;99.90;;;;;;5028629;28;20126;-91
2022/04/28 12:06:37;;;;;;;10.63;3.20;;;11.90;99.90;;;;;;5034535;28;20417;-92
2022/04/28 12:14:34;;;;;;;11.10;3.15;;;12.10;99.90;;;;;;5039337;28;20514;-91
2022/04/28 12:20:00;;;;;;;9.43;3.17;;;11.90;99.90;;;;;;5032358;28;20533;-93
2022/04/28 12:22:40;;;;;;;8.48;3.10;;;12.00;99.90;;;;;;5039753;28;20046;-92
2022/04/28 12:25:12;;;;;;;8.00;2.97;;;12.00;99.90;;;;;;5023959;28;20104;-93
2022/04/28 12:27:58;;;;;;;7.75;2.97;;;12.10;99.90;;;;;;5030807;28;20053;-91
2022/04/28 12:30:24;;;;;;;11.27;3.45;;;12.00;99.90;;;;;;5016191;28;20049;-92
2022/04/28 12:32:59;;;;;;;9.25;3.80;;;12.20;99.90;;;;;;5014479;28;20506;-90
2022/04/28 12:35:35;;;;;;;8.98;3.38;;;12.10;99.90;;;;;;5022926;28;20149;-91
2022/04/28 12:38:07;;;;;;;8.02;3.40;;;12.30;99.90;;;;;;5016726;28;20041;-91
2022/04/28 12:40:40;;;;;;;7.07;2.97;;;12.70;99.90;;;;;;5031920;28;20388;-92
2022/04/28 12:43:08;;;;;;;10.75;3.55;;;13.50;99.90;;;;;;5025434;28;20037;-92
2022/04/28 12:45:40;;;;;;;10.15;4.45;;;12.90;99.90;;;;;;5015227;28;20052;-92
2022/04/28 12:48:21;;;;;;;8.35;3.40;;;13.10;99.90;;;;;;5024327;28;20059;-92
2022/04/28 12:50:48;;;;;;;12.45;3.95;;;12.80;99.90;;;;;;5032885;28;20038;-93
2022/04/28 12:53:32;;;;;;;13.35;4.10;;;12.90;99.90;;;;;;5016060;28;20677;-92
2022/04/28 12:56:14;;;;;;;10.93;3.25;;;12.30;99.90;;;;;;5018010;28;20037;-92
2022/04/28 12:58:45;;;;;;;9.18;3.45;;;13.00;99.90;;;;;;5036015;28;20053;-92
2022/04/28 13:01:14;;;;;;;14.45;4.30;;;12.50;99.90;;;;;;5038379;28;20049;-92
2022/04/28 13:03:41;;;;;;;7.53;3.30;;;12.90;99.90;;;;;;5032693;28;20041;-91
2022/04/28 13:06:08;;;;;;;8.70;3.45;;;12.80;99.90;;;;;;5036066;28;20501;-92
2022/04/28 13:08:34;;;;;;;14.05;4.28;;;12.50;99.90;;;;;;5029481;28;20053;-91
2022/04/28 13:11:01;;;;;;;6.45;3.20;;;12.20;99.90;;;;;;5022008;28;20036;-93
2022/04/28 13:13:29;;;;;;;9.43;3.00;;;12.70;99.90;;;;;;5018785;28;20650;-93
2022/04/28 13:15:55;;;;;;;8.15;3.22;;;13.30;99.90;;;;;;5020878;28;20036;-90
2022/04/28 13:18:21;;;;;;;12.50;3.50;;;14.00;99.90;;;;;;5018998;28;20072;-91
2022/04/28 13:20:47;;;;;;;7.82;3.67;;;13.90;99.90;;;;;;5038245;28;20565;-91
2022/04/28 13:23:13;;;;;;;13.13;3.70;;;13.60;99.90;;;;;;5015634;28;20384;-93
2022/04/28 13:25:38;;;;;;;9.27;3.13;;;14.00;99.90;;;;;;5020551;28;20448;-91
2022/04/28 13:28:04;;;;;;;8.75;2.97;;;13.30;99.90;;;;;;5040733;28;20514;-92
2022/04/28 13:30:30;;;;;;;8.57;3.30;;;13.00;99.90;;;;;;5018481;28;20418;-93
2022/04/28 13:32:56;;;;;;;9.00;3.58;;;12.80;99.90;;;;;;5021962;28;20037;-92
2022/04/28 13:35:22;;;;;;;10.93;3.75;;;12.20;99.90;;;;;;5021351;28;20052;-92